Time;durP1;ratioP1;P1;durP2;ratioP2;P2;SDS_P1;SDS_P2;PMS_P1;PMS_P2;Temp;Humidity;BMP_temperature;BMP_pressure;BME280_temperature;BME280_humidity;BME280_pressure;Samples;Min_cycle;Max_cycle;Signal;HPM_P1;HPM_P2
2022/10/30 00:01:51;;;;;;;8.43;4.90;;;17.10;99.90;;;;;;931695;149;27339;-78
2022/10/30 00:04:18;;;;;;;7.67;4.58;;;17.20;99.90;;;;;;932743;149;27490;-78
2022/10/30 00:06:45;;;;;;;5.30;4.47;;;17.20;99.90;;;;;;942363;147;27358;-78
2022/10/30 00:09:11;;;;;;;8.08;4.58;;;17.20;99.90;;;;;;928341;150;28195;-79
2022/10/30 00:11:38;;;;;;;7.47;4.87;;;17.30;99.90;;;;;;934253;150;27365;-79
2022/10/30 00:14:04;;;;;;;9.10;5.12;;;17.30;99.90;;;;;;928703;150;27448;-79
2022/10/30 00:16:31;;;;;;;6.10;4.22;;;17.30;99.90;;;;;;928722;149;27314;-78
2022/10/30 00:18:57;;;;;;;6.08;4.22;;;17.30;99.90;;;;;;935504;149;27431;-78
2022/10/30 00:21:24;;;;;;;4.83;4.10;;;17.20;99.90;;;;;;942002;147;27323;-79
2022/10/30 00:23:51;;;;;;;8.78;5.28;;;17.20;99.90;;;;;;938051;149;27617;-78
2022/10/30 00:26:17;;;;;;;5.83;4.83;;;17.20;99.90;;;;;;938409;148;27274;-78
2022/10/30 00:28:44;;;;;;;8.53;5.12;;;17.20;99.90;;;;;;937901;148;27827;-78
2022/10/30 00:31:10;;;;;;;6.75;4.53;;;17.10;99.90;;;;;;937155;148;27354;-78
2022/10/30 00:33:37;;;;;;;6.60;4.80;;;17.10;99.90;;;;;;934702;149;27371;-78
2022/10/30 00:36:04;;;;;;;6.03;4.33;;;17.00;99.90;;;;;;936058;149;27450;-79
2022/10/30 00:38:30;;;;;;;6.15;4.60;;;17.00;99.90;;;;;;937011;148;27375;-78
2022/10/30 00:40:57;;;;;;;8.20;5.03;;;16.90;99.90;;;;;;924846;149;27339;-79
2022/10/30 00:43:32;;;;;;;7.55;4.65;;;16.90;99.90;;;;;;925048;151;27421;-78
2022/10/30 00:45:59;;;;;;;8.20;4.50;;;16.90;99.90;;;;;;937838;148;27439;-78
2022/10/30 00:48:25;;;;;;;6.05;4.33;;;16.80;99.90;;;;;;933309;149;27523;-78
2022/10/30 00:50:52;;;;;;;4.78;4.28;;;16.70;99.90;;;;;;935753;148;27360;-78
2022/10/30 00:53:19;;;;;;;7.67;4.67;;;16.70;99.90;;;;;;934484;149;27315;-78
2022/10/30 00:55:45;;;;;;;6.45;5.17;;;16.60;99.90;;;;;;934721;149;27301;-78
2022/10/30 00:58:12;;;;;;;7.80;4.65;;;16.60;99.90;;;;;;937340;149;27396;-78
2022/10/30 01:00:39;;;;;;;5.85;4.22;;;16.50;99.90;;;;;;935255;148;27474;-78
2022/10/30 01:03:05;;;;;;;7.87;4.53;;;16.50;99.90;;;;;;935441;149;27282;-78
2022/10/30 01:05:32;;;;;;;9.80;4.60;;;16.40;99.90;;;;;;936825;149;27304;-78
2022/10/30 01:07:58;;;;;;;8.33;4.28;;;16.40;99.90;;;;;;935520;149;27291;-78
2022/10/30 01:10:25;;;;;;;5.40;4.15;;;16.40;99.90;;;;;;935740;149;27353;-78
2022/10/30 01:12:51;;;;;;;5.72;4.40;;;16.30;99.90;;;;;;930687;149;27408;-78
2022/10/30 01:15:18;;;;;;;8.90;4.55;;;16.30;99.90;;;;;;932776;149;28594;-78
2022/10/30 01:17:48;;;;;;;7.17;4.50;;;16.30;99.90;;;;;;931791;152;27383;-79
2022/10/30 01:20:18;;;;;;;6.55;4.28;;;16.30;99.90;;;;;;930480;149;27396;-79
2022/10/30 01:22:56;;;;;;;7.28;5.20;;;16.30;99.90;;;;;;932642;149;27302;-78
2022/10/30 01:25:25;;;;;;;5.12;4.53;;;16.20;99.90;;;;;;931761;151;27381;-78
2022/10/30 01:28:04;;;;;;;6.70;4.53;;;16.20;99.90;;;;;;945891;150;27461;-78
2022/10/30 01:31:01;;;;;;;8.55;4.20;;;16.20;99.90;;;;;;931108;152;27319;-78
2022/10/30 01:33:49;;;;;;;5.45;4.72;;;16.20;99.90;;;;;;930244;149;27313;-79
2022/10/30 01:36:21;;;;;;;6.05;4.40;;;16.20;99.90;;;;;;937798;150;27372;-78
2022/10/30 01:38:51;;;;;;;8.05;4.95;;;16.20;99.90;;;;;;940149;148;27290;-78
2022/10/30 01:41:17;;;;;;;10.28;5.30;;;16.10;99.90;;;;;;933435;149;27418;-79
2022/10/30 01:43:44;;;;;;;6.37;4.75;;;16.10;99.90;;;;;;932795;149;27335;-79
2022/10/30 01:46:16;;;;;;;9.70;4.75;;;16.00;99.90;;;;;;932435;149;27345;-78
2022/10/30 01:48:57;;;;;;;5.08;4.37;;;16.00;99.90;;;;;;929281;152;27427;-78
2022/10/30 01:51:42;;;;;;;11.35;4.90;;;16.00;99.90;;;;;;933737;152;27373;-78
2022/10/30 01:54:21;;;;;;;6.70;4.42;;;15.90;99.90;;;;;;933712;150;27912;-79
2022/10/30 01:57:08;;;;;;;7.87;4.40;;;15.90;99.90;;;;;;930232;152;27335;-78
2022/10/30 01:59:38;;;;;;;6.22;4.17;;;15.80;99.90;;;;;;932723;151;27329;-78
2022/10/30 02:02:04;;;;;;;7.33;4.40;;;15.80;99.90;;;;;;937863;148;27441;-78
2022/10/30 02:04:31;;;;;;;6.65;5.05;;;15.70;99.90;;;;;;941105;150;27336;-78
2022/10/30 02:06:57;;;;;;;5.45;4.53;;;15.60;99.90;;;;;;938936;152;27352;-78
2022/10/30 02:09:24;;;;;;;4.55;4.15;;;15.60;99.90;;;;;;924370;150;27341;-78
2022/10/30 02:11:51;;;;;;;7.35;4.55;;;15.50;99.90;;;;;;934975;150;27443;-78
2022/10/30 02:14:17;;;;;;;9.00;4.60;;;15.50;99.90;;;;;;940899;148;27361;-78
2022/10/30 02:16:44;;;;;;;5.58;4.75;;;15.50;99.90;;;;;;954468;148;27379;-78
2022/10/30 02:19:10;;;;;;;8.58;4.30;;;15.40;99.90;;;;;;954927;146;27400;-78
2022/10/30 02:21:37;;;;;;;5.00;4.22;;;15.40;99.90;;;;;;956129;146;27458;-78
2022/10/30 02:24:04;;;;;;;6.85;4.97;;;15.40;99.90;;;;;;953701;148;27423;-78
2022/10/30 02:26:30;;;;;;;8.60;4.55;;;15.30;99.90;;;;;;953736;148;27331;-79
2022/10/30 02:28:57;;;;;;;8.75;4.45;;;15.30;99.90;;;;;;953348;148;27407;-78
2022/10/30 02:31:23;;;;;;;8.75;4.97;;;15.30;99.90;;;;;;954498;148;27355;-78
2022/10/30 02:33:50;;;;;;;7.47;4.45;;;15.20;99.90;;;;;;954098;148;27335;-78
2022/10/30 02:36:17;;;;;;;6.85;5.05;;;15.20;99.90;;;;;;955263;148;27301;-78
2022/10/30 02:38:43;;;;;;;6.15;4.50;;;15.20;99.90;;;;;;955142;148;27366;-78
2022/10/30 02:41:10;;;;;;;6.17;4.25;;;15.20;99.90;;;;;;955253;148;27298;-78
2022/10/30 02:43:36;;;;;;;5.80;4.70;;;15.20;99.90;;;;;;953200;148;27426;-78
2022/10/30 02:46:04;;;;;;;5.80;4.28;;;15.10;99.90;;;;;;954667;146;27418;-78
2022/10/30 02:48:29;;;;;;;6.17;4.22;;;15.10;99.90;;;;;;954875;148;27370;-79
2022/10/30 02:51:02;;;;;;;6.80;4.08;;;15.10;99.90;;;;;;954524;148;27630;-78
2022/10/30 02:53:29;;;;;;;5.97;4.37;;;15.10;99.90;;;;;;938114;148;27451;-78
2022/10/30 02:55:55;;;;;;;7.57;4.53;;;15.10;99.90;;;;;;940607;149;27424;-79
2022/10/30 02:58:22;;;;;;;6.22;4.55;;;15.10;99.90;;;;;;941114;148;27381;-78
2022/10/30 03:00:48;;;;;;;7.28;4.90;;;15.10;99.90;;;;;;937098;149;27380;-78
2022/10/30 03:03:15;;;;;;;6.60;4.37;;;15.10;99.90;;;;;;946171;148;28143;-79
2022/10/30 03:05:42;;;;;;;5.73;4.60;;;15.10;99.90;;;;;;947390;148;27355;-78
2022/10/30 03:08:08;;;;;;;8.60;4.65;;;15.10;99.90;;;;;;939555;148;27412;-79
2022/10/30 03:10:35;;;;;;;7.53;4.62;;;15.10;99.90;;;;;;937629;149;27368;-78
2022/10/30 03:13:01;;;;;;;6.95;4.62;;;15.10;99.90;;;;;;936658;149;27408;-79
2022/10/30 03:15:28;;;;;;;6.60;5.10;;;15.10;99.90;;;;;;948052;148;27342;-78
2022/10/30 03:17:54;;;;;;;5.90;4.33;;;15.10;99.90;;;;;;939569;149;27330;-78
2022/10/30 03:20:21;;;;;;;6.75;5.78;;;15.10;99.90;;;;;;937852;149;27353;-79
2022/10/30 03:22:48;;;;;;;4.83;4.15;;;15.10;99.90;;;;;;940571;148;27365;-79
2022/10/30 03:25:14;;;;;;;5.70;4.45;;;15.10;99.90;;;;;;939179;149;27349;-79
2022/10/30 03:27:41;;;;;;;9.15;4.35;;;15.10;99.90;;;;;;940150;148;27305;-78
2022/10/30 03:30:08;;;;;;;6.53;4.87;;;15.20;99.90;;;;;;947614;148;27340;-79
2022/10/30 03:32:34;;;;;;;7.40;5.12;;;15.20;99.90;;;;;;947493;148;27372;-79
2022/10/30 03:35:01;;;;;;;6.42;5.47;;;15.20;99.90;;;;;;941282;148;27369;-78
2022/10/30 03:37:27;;;;;;;9.10;5.20;;;15.20;99.90;;;;;;947564;148;27408;-79
2022/10/30 03:39:54;;;;;;;7.20;5.28;;;15.20;99.90;;;;;;956348;148;27356;-79
2022/10/30 03:42:21;;;;;;;8.88;5.00;;;15.20;99.90;;;;;;939691;149;27611;-78
2022/10/30 03:44:47;;;;;;;6.92;5.20;;;15.20;99.90;;;;;;955119;146;27950;-78
2022/10/30 03:47:14;;;;;;;6.62;6.00;;;15.20;99.90;;;;;;954314;146;27282;-79
2022/10/30 03:49:40;;;;;;;10.25;5.58;;;15.20;99.90;;;;;;955333;146;27295;-79
2022/10/30 03:52:07;;;;;;;8.20;5.60;;;15.20;99.90;;;;;;945386;148;27504;-79
2022/10/30 03:54:34;;;;;;;8.60;6.22;;;15.20;99.90;;;;;;939196;149;27482;-79
2022/10/30 03:57:00;;;;;;;14.00;5.95;;;15.20;99.90;;;;;;954610;146;27308;-77
2022/10/30 03:59:28;;;;;;;8.93;5.12;;;15.10;99.90;;;;;;954405;146;27328;-78
2022/10/30 04:01:53;;;;;;;6.30;5.17;;;15.10;99.90;;;;;;937985;148;27301;-78
2022/10/30 04:04:20;;;;;;;6.28;5.30;;;15.10;99.90;;;;;;957238;148;27338;-78
2022/10/30 04:06:47;;;;;;;6.33;4.90;;;15.10;99.90;;;;;;936642;149;27376;-78
2022/10/30 04:09:13;;;;;;;7.60;5.10;;;15.10;99.90;;;;;;940153;148;27336;-78
2022/10/30 04:11:40;;;;;;;6.70;4.85;;;15.10;99.90;;;;;;939389;151;27436;-78
2022/10/30 04:14:06;;;;;;;9.53;4.80;;;15.10;99.90;;;;;;942268;148;27469;-78
2022/10/30 04:16:33;;;;;;;9.38;6.10;;;15.10;99.90;;;;;;956558;148;27339;-78
2022/10/30 04:19:00;;;;;;;7.47;6.10;;;15.10;99.90;;;;;;959096;145;27418;-78
2022/10/30 04:21:26;;;;;;;6.95;5.75;;;15.10;99.90;;;;;;958477;145;27300;-78
2022/10/30 04:23:53;;;;;;;8.10;5.65;;;15.10;99.90;;;;;;958549;148;27468;-78
2022/10/30 04:26:19;;;;;;;5.95;5.37;;;15.10;99.90;;;;;;958491;148;27303;-78
2022/10/30 04:28:46;;;;;;;10.70;5.92;;;15.10;99.90;;;;;;955056;145;27393;-78
2022/10/30 04:31:12;;;;;;;9.65;5.70;;;15.10;99.90;;;;;;958211;148;27363;-78
2022/10/30 04:33:39;;;;;;;5.65;5.12;;;15.10;99.90;;;;;;944031;148;28358;-78
2022/10/30 04:36:06;;;;;;;8.40;5.75;;;15.10;99.90;;;;;;958887;147;27347;-78
2022/10/30 04:38:32;;;;;;;6.80;5.22;;;15.10;99.90;;;;;;960759;147;27293;-78
2022/10/30 04:40:59;;;;;;;7.47;5.70;;;15.10;99.90;;;;;;961152;148;27314;-78
2022/10/30 04:43:25;;;;;;;9.43;5.83;;;15.10;99.90;;;;;;956731;147;27434;-78
2022/10/30 04:45:52;;;;;;;6.50;5.45;;;15.10;99.90;;;;;;960948;145;27768;-78
2022/10/30 04:48:19;;;;;;;5.55;4.75;;;15.10;99.90;;;;;;944905;147;27310;-78
2022/10/30 04:50:45;;;;;;;6.55;5.05;;;15.00;99.90;;;;;;952269;148;27404;-78
2022/10/30 04:53:15;;;;;;;6.37;5.05;;;15.00;99.90;;;;;;944767;148;27871;-78
2022/10/30 04:55:42;;;;;;;10.15;5.22;;;15.00;99.90;;;;;;946268;148;27325;-78
2022/10/30 04:58:08;;;;;;;8.00;6.42;;;15.00;99.90;;;;;;957820;148;27443;-78
2022/10/30 05:00:35;;;;;;;6.22;5.00;;;15.00;99.90;;;;;;943566;148;27473;-78
2022/10/30 05:03:01;;;;;;;8.45;5.20;;;14.90;99.90;;;;;;960387;145;27393;-78
2022/10/30 05:05:28;;;;;;;9.45;5.37;;;14.90;99.90;;;;;;948432;148;27331;-78
2022/10/30 05:07:54;;;;;;;7.10;5.75;;;14.90;99.90;;;;;;962793;145;27346;-78
2022/10/30 05:10:21;;;;;;;6.85;5.17;;;14.90;99.90;;;;;;947190;148;27385;-78
2022/10/30 05:12:48;;;;;;;5.62;5.05;;;14.80;99.90;;;;;;944589;148;27387;-78
2022/10/30 05:15:14;;;;;;;5.35;4.95;;;14.80;99.90;;;;;;955109;148;27323;-78
2022/10/30 05:17:41;;;;;;;6.50;5.00;;;14.80;99.90;;;;;;939229;151;27408;-78
2022/10/30 05:20:07;;;;;;;5.58;4.58;;;14.70;99.90;;;;;;932260;152;27380;-78
2022/10/30 05:22:34;;;;;;;6.47;4.87;;;14.70;99.90;;;;;;946262;150;27398;-78
2022/10/30 05:25:01;;;;;;;7.22;5.37;;;14.60;99.90;;;;;;942543;148;27452;-78
2022/10/30 05:27:27;;;;;;;5.87;4.60;;;14.60;99.90;;;;;;932234;152;27319;-78
2022/10/30 05:29:54;;;;;;;6.83;5.30;;;14.60;99.90;;;;;;935979;151;27383;-78
2022/10/30 05:32:20;;;;;;;8.45;4.95;;;14.50;99.90;;;;;;933681;151;27345;-78
2022/10/30 05:34:47;;;;;;;5.05;4.55;;;14.50;99.90;;;;;;940200;152;27328;-78
2022/10/30 05:37:14;;;;;;;6.60;5.10;;;14.40;99.90;;;;;;935082;152;27385;-78
2022/10/30 05:39:40;;;;;;;5.62;4.58;;;14.40;99.90;;;;;;926261;153;27494;-78
2022/10/30 05:42:07;;;;;;;8.18;5.33;;;14.40;99.90;;;;;;934844;151;27411;-78
2022/10/30 05:44:33;;;;;;;5.45;4.85;;;14.30;99.90;;;;;;937838;150;27395;-78
2022/10/30 05:47:00;;;;;;;8.63;5.17;;;14.20;99.90;;;;;;934903;149;27308;-78
2022/10/30 05:49:27;;;;;;;5.08;4.58;;;14.20;99.90;;;;;;928191;150;27334;-78
2022/10/30 05:51:53;;;;;;;5.45;4.92;;;14.20;99.90;;;;;;943056;149;27440;-78
2022/10/30 05:54:20;;;;;;;5.97;4.50;;;14.10;99.90;;;;;;936285;151;27289;-78
2022/10/30 05:56:46;;;;;;;5.70;4.33;;;14.10;99.90;;;;;;940368;150;27450;-78
2022/10/30 05:59:13;;;;;;;6.03;4.83;;;14.00;99.90;;;;;;949976;150;27399;-78
2022/10/30 06:01:39;;;;;;;6.33;4.57;;;14.00;99.90;;;;;;946719;150;27427;-78
2022/10/30 06:04:06;;;;;;;5.50;4.40;;;13.90;99.90;;;;;;947406;149;27456;-78
2022/10/30 06:06:33;;;;;;;5.07;4.50;;;13.90;99.90;;;;;;947738;150;27633;-78
2022/10/30 06:08:59;;;;;;;5.40;4.40;;;13.80;99.90;;;;;;926122;150;27369;-78
2022/10/30 06:11:26;;;;;;;5.17;4.67;;;13.80;99.90;;;;;;926824;150;27346;-78
2022/10/30 06:13:52;;;;;;;7.33;4.57;;;13.80;99.90;;;;;;933786;150;27394;-78
2022/10/30 06:16:19;;;;;;;5.75;4.55;;;13.80;99.90;;;;;;935277;149;27409;-78
2022/10/30 06:18:46;;;;;;;5.05;4.17;;;13.80;99.90;;;;;;941732;147;27377;-78
2022/10/30 06:21:12;;;;;;;7.27;5.37;;;13.80;99.90;;;;;;938319;148;27328;-78
2022/10/30 06:23:39;;;;;;;6.00;4.70;;;13.70;99.90;;;;;;941084;148;27351;-78
2022/10/30 06:26:05;;;;;;;6.37;4.50;;;13.70;99.90;;;;;;939785;149;27429;-78
2022/10/30 06:28:32;;;;;;;7.75;4.62;;;13.70;99.90;;;;;;940170;149;27505;-78
2022/10/30 06:30:58;;;;;;;8.95;4.80;;;13.70;99.90;;;;;;937337;149;27454;-78
2022/10/30 06:33:25;;;;;;;4.57;4.10;;;13.70;99.90;;;;;;940181;149;27318;-78
2022/10/30 06:35:52;;;;;;;6.62;4.80;;;13.70;99.90;;;;;;940210;149;27400;-78
2022/10/30 06:38:18;;;;;;;5.10;4.10;;;13.70;99.90;;;;;;941205;148;27843;-77
2022/10/30 06:40:45;;;;;;;4.13;3.83;;;13.70;99.90;;;;;;940562;149;27329;-78
2022/10/30 06:43:11;;;;;;;5.62;4.10;;;13.70;99.90;;;;;;940776;149;27374;-77
2022/10/30 06:45:38;;;;;;;5.60;3.57;;;13.70;99.90;;;;;;939404;149;27390;-76
2022/10/30 06:48:05;;;;;;;5.93;5.33;;;13.80;99.90;;;;;;939744;149;27434;-78
2022/10/30 06:50:31;;;;;;;4.75;4.20;;;13.80;99.90;;;;;;940753;149;27430;-78
2022/10/30 06:52:58;;;;;;;5.25;4.53;;;13.80;99.90;;;;;;938976;149;27345;-78
2022/10/30 06:55:24;;;;;;;4.43;4.03;;;13.90;99.90;;;;;;939387;149;27472;-78
2022/10/30 06:57:54;;;;;;;6.17;4.10;;;14.00;99.90;;;;;;940312;149;27407;-78
2022/10/30 07:00:20;;;;;;;6.83;4.55;;;14.10;99.90;;;;;;938173;149;27307;-78
2022/10/30 07:02:56;;;;;;;4.43;4.03;;;14.20;99.90;;;;;;943077;147;27374;-78
2022/10/30 07:05:23;;;;;;;4.95;4.45;;;14.40;99.90;;;;;;942597;147;27374;-78
2022/10/30 07:07:50;;;;;;;6.78;4.08;;;14.60;99.90;;;;;;929795;150;27314;-78
2022/10/30 07:10:16;;;;;;;4.45;4.05;;;14.80;99.90;;;;;;935104;149;27385;-78
2022/10/30 07:12:43;;;;;;;4.72;4.12;;;14.90;99.90;;;;;;930962;150;27374;-78
2022/10/30 07:15:09;;;;;;;6.33;4.45;;;15.10;99.90;;;;;;931267;149;27833;-78
2022/10/30 07:17:36;;;;;;;5.30;4.47;;;15.30;99.90;;;;;;957149;146;27358;-78
2022/10/30 07:20:02;;;;;;;8.60;5.20;;;15.50;99.90;;;;;;934525;149;27419;-78
2022/10/30 07:22:29;;;;;;;5.40;4.15;;;15.60;99.90;;;;;;948456;147;27333;-78
2022/10/30 07:24:56;;;;;;;6.90;4.22;;;15.80;99.90;;;;;;947420;148;27421;-78
2022/10/30 07:27:22;;;;;;;5.17;4.50;;;16.00;99.90;;;;;;941677;148;27406;-78
2022/10/30 07:29:49;;;;;;;5.65;4.17;;;16.20;99.90;;;;;;954119;146;27262;-78
2022/10/30 07:32:15;;;;;;;6.03;3.87;;;16.50;99.90;;;;;;956435;146;27436;-79
2022/10/30 07:34:42;;;;;;;5.58;4.60;;;16.90;99.90;;;;;;956006;146;27465;-79
2022/10/30 07:37:09;;;;;;;4.90;3.77;;;17.30;99.90;;;;;;938345;149;27313;-79
2022/10/30 07:39:35;;;;;;;5.05;4.35;;;17.80;99.90;;;;;;942084;149;27296;-78
2022/10/30 07:42:02;;;;;;;5.10;4.17;;;18.30;99.90;;;;;;953479;146;27334;-79
2022/10/30 07:44:28;;;;;;;6.17;4.55;;;18.70;99.90;;;;;;952421;148;27385;-78
2022/10/30 07:46:55;;;;;;;6.80;4.12;;;19.10;99.90;;;;;;956337;146;27451;-78
2022/10/30 07:49:22;;;;;;;4.35;3.85;;;19.60;99.90;;;;;;938314;149;27341;-78
2022/10/30 07:51:48;;;;;;;4.25;3.58;;;20.00;99.90;;;;;;941591;148;27349;-79
2022/10/30 07:54:15;;;;;;;5.00;3.95;;;20.40;99.90;;;;;;946225;148;27311;-78
2022/10/30 07:56:41;;;;;;;3.70;3.25;;;20.80;99.90;;;;;;940763;148;27304;-79
2022/10/30 07:59:08;;;;;;;4.53;3.52;;;21.20;99.90;;;;;;955621;146;27351;-79
2022/10/30 08:01:34;;;;;;;5.12;3.37;;;21.60;99.90;;;;;;956185;146;27331;-79
2022/10/30 08:04:01;;;;;;;3.47;3.17;;;22.10;99.90;;;;;;955950;145;27272;-78
2022/10/30 08:06:28;;;;;;;4.83;4.12;;;22.50;99.90;;;;;;956264;146;27324;-79
2022/10/30 08:08:54;;;;;;;6.55;3.05;;;22.90;99.90;;;;;;942169;149;27462;-79
2022/10/30 08:11:21;;;;;;;4.70;3.25;;;23.40;99.90;;;;;;937278;149;27392;-79
2022/10/30 08:13:47;;;;;;;4.25;3.50;;;23.80;99.90;;;;;;941617;148;27338;-78
2022/10/30 08:16:16;;;;;;;4.65;3.15;;;24.20;99.90;;;;;;956060;145;27337;-76
2022/10/30 08:18:41;;;;;;;2.70;2.50;;;24.60;98.70;;;;;;939879;149;27337;-77
2022/10/30 08:21:07;;;;;;;4.65;3.42;;;24.90;97.40;;;;;;940095;149;27312;-77
2022/10/30 08:23:34;;;;;;;4.15;3.15;;;25.30;95.80;;;;;;926965;149;27989;-77
2022/10/30 08:26:00;;;;;;;3.50;3.00;;;25.60;94.90;;;;;;919841;150;27440;-76
2022/10/30 08:28:27;;;;;;;3.47;3.17;;;26.00;93.50;;;;;;937243;149;27264;-77
2022/10/30 08:30:54;;;;;;;3.85;3.05;;;26.30;92.60;;;;;;935844;148;27609;-77
2022/10/30 08:33:20;;;;;;;3.37;3.05;;;26.60;91.80;;;;;;927262;150;27331;-77
2022/10/30 08:35:47;;;;;;;5.33;3.12;;;26.80;91.20;;;;;;938353;149;27305;-77
2022/10/30 08:38:13;;;;;;;3.70;2.70;;;27.00;88.80;;;;;;943720;150;27340;-77
2022/10/30 08:40:40;;;;;;;7.25;3.90;;;27.10;84.50;;;;;;941202;147;27368;-76
2022/10/30 08:43:06;;;;;;;3.98;3.15;;;27.10;82.00;;;;;;919209;150;27330;-76
2022/10/30 08:45:33;;;;;;;4.33;3.00;;;27.00;80.50;;;;;;935246;149;27428;-77
2022/10/30 08:48:00;;;;;;;5.60;3.20;;;26.80;78.90;;;;;;936350;149;27474;-77
2022/10/30 08:50:26;;;;;;;5.05;3.22;;;26.50;77.60;;;;;;936448;151;27369;-77
2022/10/30 08:52:53;;;;;;;4.78;3.05;;;26.20;76.70;;;;;;936850;149;27445;-76
2022/10/30 08:55:19;;;;;;;5.33;3.30;;;25.80;76.60;;;;;;935562;149;27302;-77
2022/10/30 08:57:46;;;;;;;3.75;3.37;;;25.50;77.10;;;;;;934271;149;27439;-76
2022/10/30 09:00:13;;;;;;;4.58;3.15;;;25.20;77.40;;;;;;936273;148;27375;-77
2022/10/30 09:02:39;;;;;;;4.05;2.95;;;24.80;77.90;;;;;;934461;149;27380;-76
2022/10/30 09:05:06;;;;;;;3.50;3.20;;;24.50;78.50;;;;;;935392;148;27828;-76
2022/10/30 09:07:32;;;;;;;5.33;3.20;;;24.30;79.30;;;;;;931016;150;27285;-76
2022/10/30 09:09:59;;;;;;;4.10;3.20;;;24.00;80.30;;;;;;934332;151;27507;-77
2022/10/30 09:12:26;;;;;;;5.95;3.20;;;23.80;81.00;;;;;;934003;149;27313;-76
2022/10/30 09:14:52;;;;;;;4.08;3.25;;;23.60;81.70;;;;;;944180;147;27352;-76
2022/10/30 09:17:19;;;;;;;3.42;2.98;;;23.50;82.40;;;;;;930173;151;27492;-76
2022/10/30 09:19:46;;;;;;;5.28;3.20;;;23.40;83.00;;;;;;942667;146;27424;-76
2022/10/30 09:22:12;;;;;;;5.80;3.37;;;23.30;84.40;;;;;;920367;150;27315;-76
2022/10/30 09:24:39;;;;;;;4.80;3.35;;;23.20;85.60;;;;;;935336;148;27815;-77
2022/10/30 09:27:05;;;;;;;3.25;2.95;;;23.20;86.80;;;;;;937778;149;27385;-78
2022/10/30 09:29:32;;;;;;;3.37;2.90;;;23.30;88.20;;;;;;935523;151;27346;-78
2022/10/30 09:31:59;;;;;;;3.40;2.67;;;23.30;88.80;;;;;;937762;148;27373;-76
2022/10/30 09:34:26;;;;;;;3.20;2.90;;;23.40;89.20;;;;;;925702;149;27343;-78
2022/10/30 09:36:52;;;;;;;3.50;2.87;;;23.50;89.20;;;;;;938442;149;27329;-77
2022/10/30 09:39:18;;;;;;;3.95;2.65;;;23.60;88.00;;;;;;938236;149;27351;-76
2022/10/30 09:42:00;;;;;;;5.40;3.05;;;23.70;87.30;;;;;;941429;149;27404;-77
2022/10/30 09:44:35;;;;;;;5.40;3.15;;;23.70;86.70;;;;;;937894;149;27439;-78
2022/10/30 09:47:11;;;;;;;4.37;3.08;;;23.80;86.30;;;;;;939054;149;27388;-79
2022/10/30 09:49:54;;;;;;;3.58;2.90;;;23.80;85.90;;;;;;938230;148;27400;-79
2022/10/30 09:52:22;;;;;;;3.47;2.80;;;23.90;85.70;;;;;;941135;148;27377;-78
2022/10/30 09:55:11;;;;;;;4.03;3.27;;;23.90;85.70;;;;;;939630;148;27357;-78
2022/10/30 09:58:05;;;;;;;3.33;2.92;;;24.00;85.40;;;;;;939955;149;27330;-78
2022/10/30 10:00:38;;;;;;;6.33;3.40;;;24.00;85.10;;;;;;938343;149;27326;-78
2022/10/30 10:03:20;;;;;;;4.37;3.08;;;24.10;84.60;;;;;;938110;148;27348;-79
2022/10/30 10:05:46;;;;;;;3.17;2.87;;;24.10;83.40;;;;;;938402;148;27387;-79
2022/10/30 10:08:13;;;;;;;4.80;2.95;;;24.20;83.00;;;;;;935344;149;27949;-78
2022/10/30 10:10:42;;;;;;;3.22;2.77;;;24.20;82.70;;;;;;934729;150;27367;-78
2022/10/30 10:13:21;;;;;;;2.87;2.67;;;24.20;82.50;;;;;;936393;149;27901;-79
2022/10/30 10:15:50;;;;;;;5.92;3.37;;;24.20;81.70;;;;;;937920;149;27411;-78
2022/10/30 10:18:18;;;;;;;4.72;2.70;;;24.10;81.40;;;;;;925720;150;27527;-77
2022/10/30 10:20:43;;;;;;;3.92;2.70;;;24.10;81.00;;;;;;944419;147;27438;-78
2022/10/30 10:23:10;;;;;;;5.05;2.90;;;24.10;81.80;;;;;;942018;147;27398;-78
2022/10/30 10:25:37;;;;;;;3.08;2.77;;;24.10;80.90;;;;;;927035;150;27437;-78
2022/10/30 10:28:21;;;;;;;3.95;2.50;;;24.00;80.80;;;;;;943867;147;27333;-78
2022/10/30 10:31:00;;;;;;;3.30;2.77;;;24.00;80.40;;;;;;923740;151;27321;-79
2022/10/30 10:33:32;;;;;;;4.03;2.60;;;24.00;80.40;;;;;;927087;149;27496;-78
2022/10/30 10:35:59;;;;;;;5.87;2.90;;;23.90;80.00;;;;;;939488;147;27288;-78
2022/10/30 10:38:53;;;;;;;3.37;2.50;;;23.90;80.00;;;;;;939352;147;27283;-78
2022/10/30 10:41:40;;;;;;;6.67;2.65;;;23.80;80.40;;;;;;925363;150;27505;-78
2022/10/30 10:44:28;;;;;;;3.60;2.22;;;23.80;80.40;;;;;;924561;150;27315;-78
2022/10/30 10:47:00;;;;;;;6.85;2.90;;;23.70;80.20;;;;;;938270;149;27457;-78
2022/10/30 10:50:00;;;;;;;2.52;2.33;;;23.70;80.40;;;;;;936268;149;27460;-78
2022/10/30 10:52:30;;;;;;;5.08;3.10;;;23.60;80.40;;;;;;906295;154;27420;-78
2022/10/30 10:54:59;;;;;;;3.25;2.47;;;23.60;80.80;;;;;;929880;149;27385;-78
2022/10/30 10:57:26;;;;;;;4.08;2.98;;;23.50;81.00;;;;;;925777;150;27412;-78
2022/10/30 10:59:55;;;;;;;4.28;2.92;;;23.50;81.10;;;;;;930658;153;27347;-78
2022/10/30 11:02:28;;;;;;;4.10;2.80;;;23.50;80.70;;;;;;938656;149;28372;-78
2022/10/30 11:04:54;;;;;;;3.08;2.80;;;23.50;80.60;;;;;;920126;150;27359;-78
2022/10/30 11:07:23;;;;;;;5.65;3.05;;;23.50;80.80;;;;;;926905;150;27356;-78
2022/10/30 11:09:50;;;;;;;2.60;2.40;;;23.50;81.00;;;;;;923768;150;27466;-78
2022/10/30 11:12:16;;;;;;;3.85;2.55;;;23.50;80.80;;;;;;925508;150;27499;-78
2022/10/30 11:14:43;;;;;;;3.42;2.83;;;23.50;81.00;;;;;;924912;152;27384;-78
2022/10/30 11:17:12;;;;;;;2.95;2.67;;;23.50;81.30;;;;;;919804;150;27327;-78
2022/10/30 11:19:39;;;;;;;6.72;2.92;;;23.50;81.30;;;;;;935801;148;27388;-78
2022/10/30 11:22:08;;;;;;;3.27;2.60;;;23.60;81.40;;;;;;929745;149;27803;-78
2022/10/30 11:24:35;;;;;;;6.08;2.70;;;23.60;80.80;;;;;;943021;146;27437;-78
2022/10/30 11:27:20;;;;;;;6.03;2.58;;;23.60;80.70;;;;;;936869;149;27388;-78
2022/10/30 11:29:52;;;;;;;3.05;2.47;;;23.70;80.60;;;;;;941742;147;27298;-78
2022/10/30 11:32:21;;;;;;;4.47;2.62;;;23.70;80.20;;;;;;935850;149;27326;-78
2022/10/30 11:34:46;;;;;;;4.20;2.85;;;23.80;80.30;;;;;;925140;149;27416;-78
2022/10/30 11:37:12;;;;;;;3.52;2.50;;;23.80;79.80;;;;;;929244;149;27792;-78
2022/10/30 11:39:39;;;;;;;2.72;2.52;;;23.90;79.60;;;;;;925949;149;27354;-78
2022/10/30 11:42:17;;;;;;;7.22;2.52;;;23.90;79.40;;;;;;921124;150;27445;-78
2022/10/30 11:44:49;;;;;;;2.85;2.50;;;23.90;79.00;;;;;;932617;149;27371;-78
2022/10/30 11:47:16;;;;;;;5.60;2.77;;;24.00;78.70;;;;;;927187;150;27464;-78
2022/10/30 11:49:51;;;;;;;3.52;2.40;;;24.10;78.60;;;;;;921813;151;27800;-77
2022/10/30 11:52:17;;;;;;;5.55;3.10;;;24.10;78.30;;;;;;930008;149;27403;-77
2022/10/30 11:54:50;;;;;;;3.70;2.45;;;24.10;78.10;;;;;;922921;150;27376;-78
2022/10/30 11:57:16;;;;;;;5.92;3.05;;;24.20;77.90;;;;;;934767;149;27342;-78
2022/10/30 11:59:43;;;;;;;2.98;2.47;;;24.30;77.70;;;;;;926373;150;27304;-78
2022/10/30 12:02:25;;;;;;;4.92;2.80;;;24.40;77.70;;;;;;943256;150;27371;-78
2022/10/30 12:04:51;;;;;;;3.62;2.35;;;24.50;77.50;;;;;;927890;149;27370;-78
2022/10/30 12:07:25;;;;;;;3.58;2.45;;;24.50;77.10;;;;;;929826;150;27339;-78
2022/10/30 12:09:50;;;;;;;3.47;2.75;;;24.60;76.90;;;;;;925711;150;27379;-78
2022/10/30 12:12:30;;;;;;;3.30;2.77;;;24.70;76.50;;;;;;941987;148;28973;-78
2022/10/30 12:14:55;;;;;;;3.90;2.65;;;24.70;75.40;;;;;;935347;148;28009;-78
2022/10/30 12:17:22;;;;;;;5.45;2.40;;;24.80;76.00;;;;;;944187;147;27294;-79
2022/10/30 12:19:51;;;;;;;3.67;2.47;;;24.80;75.40;;;;;;940026;148;27417;-78
2022/10/30 12:22:26;;;;;;;6.58;2.22;;;24.80;75.00;;;;;;938429;149;28131;-78
2022/10/30 12:24:53;;;;;;;3.83;2.80;;;24.90;74.90;;;;;;955594;146;27315;-78
2022/10/30 12:27:19;;;;;;;4.25;2.70;;;24.90;74.60;;;;;;955571;146;27323;-78
2022/10/30 12:30:01;;;;;;;5.05;2.37;;;24.90;74.40;;;;;;958727;148;27806;-78
2022/10/30 12:32:33;;;;;;;4.62;2.80;;;25.00;74.20;;;;;;947996;147;27399;-78
2022/10/30 12:34:59;;;;;;;3.60;2.85;;;25.00;74.20;;;;;;937553;148;27277;-78
2022/10/30 12:37:29;;;;;;;3.85;2.20;;;25.00;73.80;;;;;;954254;146;27353;-79
2022/10/30 12:40:01;;;;;;;5.50;2.20;;;25.00;73.30;;;;;;953823;148;27457;-77
2022/10/30 12:42:28;;;;;;;3.92;2.15;;;25.00;72.90;;;;;;955695;148;27375;-78
2022/10/30 12:45:03;;;;;;;3.10;2.30;;;25.00;72.70;;;;;;954273;148;27387;-78
2022/10/30 12:47:36;;;;;;;2.52;2.20;;;25.00;72.20;;;;;;953831;148;27341;-78
2022/10/30 12:50:26;;;;;;;3.33;2.50;;;25.10;72.70;;;;;;954604;148;27381;-79
2022/10/30 12:53:05;;;;;;;3.22;2.40;;;25.10;72.60;;;;;;939742;148;27462;-78